Time;durP1;ratioP1;P1;durP2;ratioP2;P2;SDS_P1;SDS_P2;PMS_P1;PMS_P2;Temp;Humidity;BMP_temperature;BMP_pressure;BME280_temperature;BME280_humidity;BME280_pressure;Samples;Min_cycle;Max_cycle;Signal;HPM_P1;HPM_P2
2023/12/17 00:01:38;;;;;;;20.13;9.13;;;3.40;99.90;;;1.31;100.00;102348.50;10455404;27;96701;-82
2023/12/17 00:06:42;;;;;;;22.20;9.17;;;3.30;99.90;;;1.27;100.00;102359.19;10480142;27;96555;-82
2023/12/17 00:11:45;;;;;;;18.70;9.60;;;3.30;99.90;;;1.17;100.00;102342.94;10444426;27;96630;-82
2023/12/17 00:16:49;;;;;;;20.77;9.60;;;3.20;99.90;;;1.17;100.00;102336.84;10472553;27;96669;-82
2023/12/17 00:21:52;;;;;;;24.73;10.17;;;3.20;99.90;;;1.17;100.00;102336.84;10424096;27;96524;-82
2023/12/17 00:26:57;;;;;;;23.50;9.13;;;3.20;99.90;;;1.16;100.00;102330.75;10445254;27;96685;-82
2023/12/17 00:32:01;;;;;;;20.30;8.80;;;3.10;99.90;;;1.06;100.00;102335.44;10477601;27;98168;-82
2023/12/17 00:37:04;;;;;;;20.07;9.40;;;3.10;99.90;;;1.03;100.00;102347.81;10472648;27;96533;-82
2023/12/17 00:42:08;;;;;;;24.30;10.17;;;3.00;99.90;;;0.98;100.00;102331.41;10478951;27;97106;-82
2023/12/17 00:47:14;;;;;;;18.83;9.07;;;3.00;99.90;;;0.95;100.00;102328.88;10469564;27;96481;-82
2023/12/17 00:52:20;;;;;;;20.80;9.07;;;2.90;99.90;;;1.08;100.00;102340.66;10464701;27;97519;-82
2023/12/17 00:57:25;;;;;;;20.67;10.00;;;3.00;99.90;;;1.19;100.00;102356.81;10461171;27;96621;-82
2023/12/17 01:02:28;;;;;;;19.83;9.27;;;3.10;99.90;;;1.30;100.00;102362.53;10468061;27;97035;-82
2023/12/17 01:07:32;;;;;;;24.23;9.50;;;3.20;99.90;;;1.36;100.00;102344.88;10506328;27;96434;-82
2023/12/17 01:12:36;;;;;;;20.20;9.17;;;3.30;99.90;;;1.35;100.00;102351.88;10437687;27;96665;-82
2023/12/17 01:17:39;;;;;;;19.83;9.03;;;3.30;99.90;;;1.26;100.00;102337.38;10462061;27;96802;-82
2023/12/17 01:22:43;;;;;;;22.57;8.70;;;3.30;99.90;;;1.24;100.00;102314.75;10462895;27;97629;-81
2023/12/17 01:27:46;;;;;;;19.47;8.80;;;3.20;99.90;;;1.12;100.00;102313.44;10436582;27;96652;-82
2023/12/17 01:32:50;;;;;;;17.67;7.20;;;3.20;99.90;;;1.02;100.00;102327.75;10453582;27;97720;-82
2023/12/17 01:37:54;;;;;;;18.10;8.53;;;3.10;99.90;;;0.97;100.00;102346.25;10469395;27;96358;-82
2023/12/17 01:42:58;;;;;;;16.63;8.37;;;3.00;99.90;;;0.84;100.00;102320.53;10502036;27;97447;-82
2023/12/17 01:48:03;;;;;;;21.20;9.03;;;2.90;99.90;;;0.88;100.00;102330.00;10501753;27;97175;-82
2023/12/17 01:53:07;;;;;;;21.47;9.13;;;2.90;99.90;;;1.08;100.00;102335.41;10515733;27;96523;-82
2023/12/17 01:58:12;;;;;;;20.80;8.53;;;3.00;99.90;;;1.29;100.00;102332.00;10461580;27;96641;-82
2023/12/17 02:03:16;;;;;;;19.13;9.73;;;3.20;99.90;;;1.55;100.00;102335.41;10452647;27;96944;-82
2023/12/17 02:08:20;;;;;;;21.47;9.37;;;3.50;99.90;;;1.64;100.00;102311.50;10496498;27;96624;-82
2023/12/17 02:13:23;;;;;;;19.93;8.50;;;3.60;99.90;;;1.79;100.00;102320.50;10497845;27;97156;-82
2023/12/17 02:18:26;;;;;;;18.10;9.33;;;3.70;99.90;;;1.95;100.00;102315.53;10471310;27;96529;-82
2023/12/17 02:23:30;;;;;;;18.93;9.07;;;3.80;99.90;;;2.06;100.00;102313.34;10465886;27;97766;-82
2023/12/17 02:28:33;;;;;;;19.77;9.00;;;3.90;99.90;;;2.10;100.00;102315.78;10459074;27;98156;-82
2023/12/17 02:33:37;;;;;;;20.23;9.03;;;4.00;99.90;;;2.10;100.00;102309.69;10474660;27;96695;-82
2023/12/17 02:38:41;;;;;;;21.97;10.10;;;4.10;99.90;;;2.13;100.00;102307.78;10492218;27;96665;-82
2023/12/17 02:43:44;;;;;;;19.57;9.80;;;4.10;99.90;;;2.05;100.00;102293.28;10460737;27;96614;-82
2023/12/17 02:48:47;;;;;;;20.63;9.03;;;4.00;99.90;;;2.06;100.00;102274.84;10452590;27;96572;-82
2023/12/17 02:53:51;;;;;;;20.37;9.50;;;4.10;99.90;;;2.11;100.00;102280.78;10503755;27;97739;-82
2023/12/17 02:58:55;;;;;;;20.63;10.17;;;4.00;99.90;;;2.05;100.00;102257.41;10458305;27;98180;-82
2023/12/17 03:03:58;;;;;;;20.50;9.50;;;4.10;99.90;;;2.13;100.00;102276.31;10418531;28;97384;-82
2023/12/17 03:09:02;;;;;;;17.00;9.00;;;4.00;99.90;;;2.06;100.00;102267.00;10487326;27;96513;-81
2023/12/17 03:14:05;;;;;;;18.73;9.50;;;4.00;99.90;;;2.05;100.00;102274.94;10473149;27;97165;-82
2023/12/17 03:19:09;;;;;;;17.40;9.37;;;4.00;99.90;;;2.03;100.00;102268.88;10446101;27;96646;-82
2023/12/17 03:24:13;;;;;;;20.87;9.40;;;4.00;99.90;;;2.08;100.00;102285.28;10450772;27;97308;-82
2023/12/17 03:29:17;;;;;;;21.10;9.60;;;4.00;99.90;;;2.15;100.00;102281.47;10496028;27;97094;-82
2023/12/17 03:34:20;;;;;;;19.23;8.43;;;4.10;99.90;;;2.20;100.00;102278.69;10459054;27;96552;-82
2023/12/17 03:39:24;;;;;;;14.90;8.37;;;4.10;99.90;;;2.28;100.00;102276.59;10476267;27;96966;-83
2023/12/17 03:44:27;;;;;;;20.37;8.43;;;4.20;99.90;;;2.30;100.00;102256.41;10467986;27;96657;-82
2023/12/17 03:49:31;;;;;;;17.63;7.83;;;4.20;99.90;;;2.18;100.00;102257.75;10456487;27;98442;-82
2023/12/17 03:54:35;;;;;;;22.13;8.63;;;4.20;99.90;;;2.10;100.00;102258.09;10460383;27;96649;-82
2023/12/17 03:59:39;;;;;;;18.50;8.33;;;4.10;99.90;;;2.08;100.00;102264.28;10477063;27;96466;-82
2023/12/17 04:04:43;;;;;;;23.70;9.90;;;4.00;99.90;;;1.98;100.00;102258.59;10470497;27;96605;-82
2023/12/17 04:09:47;;;;;;;15.43;8.20;;;4.00;99.90;;;1.92;100.00;102242.22;10456070;27;96529;-82
2023/12/17 04:14:50;;;;;;;40.47;16.83;;;3.90;99.90;;;1.81;100.00;102230.44;10467887;27;96501;-82
2023/12/17 04:19:54;;;;;;;20.77;10.00;;;3.80;99.90;;;1.77;100.00;102231.47;10488165;27;96555;-82
2023/12/17 04:24:57;;;;;;;17.03;8.83;;;3.70;99.90;;;1.64;100.00;102235.50;10481413;27;96558;-82
2023/12/17 04:30:01;;;;;;;19.53;8.57;;;3.70;99.90;;;1.56;100.00;102256.75;10490847;27;96783;-81
2023/12/17 04:35:06;;;;;;;17.73;7.60;;;3.60;99.90;;;1.54;100.00;102247.25;10505318;27;96419;-82
2023/12/17 04:40:10;;;;;;;20.50;9.20;;;3.50;99.90;;;1.54;100.00;102240.22;10470070;27;96601;-82
2023/12/17 04:45:14;;;;;;;19.87;9.93;;;3.50;99.90;;;1.59;100.00;102245.28;10491232;27;96528;-82
2023/12/17 04:50:17;;;;;;;18.43;7.03;;;3.50;99.90;;;1.59;100.00;102246.16;10503998;27;96599;-81
2023/12/17 04:55:21;;;;;;;14.80;7.37;;;3.60;99.90;;;1.58;100.00;102248.84;10486766;27;96765;-82
2023/12/17 05:00:24;;;;;;;12.93;6.30;;;3.50;99.90;;;1.50;100.00;102248.25;10442494;27;96553;-82
2023/12/17 05:05:28;;;;;;;17.33;8.40;;;3.50;99.90;;;1.46;100.00;102254.56;10463215;27;96542;-81
2023/12/17 05:10:31;;;;;;;14.57;8.27;;;3.40;99.90;;;1.37;100.00;102249.66;10464322;27;96564;-81
2023/12/17 05:15:35;;;;;;;13.80;6.27;;;3.40;99.90;;;1.32;100.00;102262.94;10426842;27;96489;-81
2023/12/17 05:20:40;;;;;;;16.87;6.60;;;3.30;99.90;;;1.15;100.00;102258.34;10491175;27;96450;-82
2023/12/17 05:25:44;;;;;;;16.50;6.37;;;3.30;99.90;;;1.07;100.00;102274.31;10502984;27;96498;-81
2023/12/17 05:30:47;;;;;;;12.57;6.23;;;3.10;99.90;;;0.87;100.00;102271.56;10457814;27;96688;-81
2023/12/17 05:35:51;;;;;;;14.60;6.97;;;3.00;99.90;;;0.79;100.00;102289.31;10438861;27;96427;-82
2023/12/17 05:40:55;;;;;;;13.40;5.43;;;2.90;99.90;;;0.79;100.00;102294.56;10467391;27;96730;-81
2023/12/17 05:45:58;;;;;;;12.50;5.60;;;2.80;99.90;;;0.95;100.00;102274.75;10445978;27;97671;-82
2023/12/17 05:51:09;;;;;;;11.90;5.30;;;2.90;99.90;;;1.06;100.00;102258.66;10464890;27;97897;-82
2023/12/17 05:56:12;;;;;;;9.73;4.83;;;3.00;99.90;;;1.31;100.00;102235.88;10430150;27;96584;-82
2023/12/17 06:01:16;;;;;;;14.27;5.13;;;3.30;99.90;;;1.48;100.00;102237.84;10471379;27;96900;-81
2023/12/17 06:06:19;;;;;;;9.33;4.57;;;3.40;99.90;;;1.60;100.00;102233.91;10460804;27;96592;-82
2023/12/17 06:11:23;;;;;;;9.87;5.23;;;3.60;99.90;;;1.73;100.00;102218.53;10458256;27;98162;-82
2023/12/17 06:16:26;;;;;;;10.40;4.47;;;3.60;99.90;;;1.85;100.00;102224.13;10459820;27;96543;-82
2023/12/17 06:21:29;;;;;;;10.20;5.27;;;3.80;99.90;;;1.90;100.00;102217.84;10459506;27;96486;-82
2023/12/17 06:26:36;;;;;;;13.10;5.10;;;3.80;99.90;;;1.88;100.00;102215.31;10454683;27;97346;-83
2023/12/17 06:31:40;;;;;;;13.07;5.33;;;3.80;99.90;;;1.88;100.00;102225.78;10432118;27;96871;-81
2023/12/17 06:36:43;;;;;;;11.73;5.83;;;3.80;99.90;;;1.82;100.00;102228.66;10458607;27;97048;-82
2023/12/17 06:41:47;;;;;;;15.70;5.50;;;3.80;99.90;;;1.82;100.00;102234.75;10437505;27;96512;-81
2023/12/17 06:46:51;;;;;;;10.30;4.67;;;3.80;99.90;;;1.86;100.00;102235.50;10447127;27;96518;-81
2023/12/17 06:51:55;;;;;;;10.03;5.03;;;3.80;99.90;;;1.86;100.00;102231.09;10440060;27;99869;-82
2023/12/17 06:56:59;;;;;;;15.03;6.80;;;3.80;99.90;;;1.91;100.00;102216.94;10450406;27;97484;-82
2023/12/17 07:02:03;;;;;;;8.30;4.47;;;3.80;99.90;;;2.06;100.00;102218.94;10466209;27;97697;-82
2023/12/17 07:07:06;;;;;;;10.70;5.60;;;3.90;99.90;;;2.11;100.00;102211.72;10485335;27;96457;-82
2023/12/17 07:12:10;;;;;;;9.07;4.27;;;4.00;99.90;;;2.22;100.00;102208.63;10447467;27;96668;-82
2023/12/17 07:17:14;;;;;;;11.53;6.50;;;4.10;99.90;;;2.28;100.00;102206.63;10481498;27;96847;-81
2023/12/17 07:22:22;;;;;;;12.53;5.77;;;4.20;99.90;;;2.39;100.00;102200.91;10488386;27;96528;-82
2023/12/17 07:27:26;;;;;;;11.90;6.27;;;4.30;99.90;;;2.56;100.00;102197.53;10459107;27;96474;-82
2023/12/17 07:32:29;;;;;;;8.37;4.43;;;4.40;99.90;;;2.86;100.00;102193.53;10478939;27;97834;-82
2023/12/17 07:37:33;;;;;;;11.27;5.50;;;4.70;99.90;;;3.24;100.00;102209.34;10475118;27;96648;-83
2023/12/17 07:42:37;;;;;;;8.83;4.40;;;4.90;99.90;;;3.49;100.00;102206.41;10468791;27;96490;-81
2023/12/17 07:47:40;;;;;;;9.00;4.23;;;5.20;99.90;;;3.88;100.00;102208.84;10487394;27;96566;-82
2023/12/17 07:52:48;;;;;;;8.07;4.57;;;5.50;99.90;;;4.16;100.00;102218.03;10480053;27;96903;-82
2023/12/17 07:57:51;;;;;;;9.60;4.30;;;5.70;99.90;;;4.34;100.00;102224.97;10447585;27;96609;-82
2023/12/17 08:02:55;;;;;;;9.07;4.97;;;5.90;99.90;;;4.54;100.00;102200.25;10498937;27;96574;-82
2023/12/17 08:07:58;;;;;;;10.60;5.00;;;6.10;99.90;;;4.90;100.00;102210.63;10475387;27;97504;-82
2023/12/17 08:13:02;;;;;;;8.00;3.83;;;6.30;99.90;;;5.16;96.58;102222.41;10479203;27;96612;-82
2023/12/17 08:18:05;;;;;;;8.30;4.50;;;6.60;99.90;;;5.26;95.42;102233.28;10487416;27;96534;-82
2023/12/17 08:23:09;;;;;;;7.53;4.27;;;6.70;99.90;;;5.27;93.75;102225.28;10458403;27;96700;-82
2023/12/17 08:28:12;;;;;;;6.87;3.97;;;6.80;99.90;;;5.33;92.82;102221.47;10453105;27;96650;-82
2023/12/17 08:33:16;;;;;;;9.07;4.07;;;6.90;99.90;;;5.46;91.98;102240.09;10466273;27;96984;-82
2023/12/17 08:38:20;;;;;;;6.50;4.00;;;7.00;99.90;;;5.61;91.25;102252.44;10474624;27;96616;-81
2023/12/17 08:43:23;;;;;;;7.03;3.90;;;7.10;99.90;;;5.56;89.45;102228.94;10463011;27;97378;-81
2023/12/17 08:48:27;;;;;;;8.93;4.10;;;7.30;99.90;;;5.62;88.61;102246.22;10462014;27;98110;-82
2023/12/17 08:53:31;;;;;;;7.07;3.77;;;7.30;99.90;;;5.53;92.09;102249.38;10493369;27;96480;-83
2023/12/17 08:58:35;;;;;;;5.40;3.20;;;7.30;99.90;;;5.41;92.91;102236.88;10465829;27;96774;-81
2023/12/17 09:03:38;;;;;;;6.37;3.27;;;7.20;99.90;;;5.41;90.49;102240.38;10441789;27;97954;-82
2023/12/17 09:08:42;;;;;;;7.37;3.50;;;7.20;99.90;;;5.41;89.16;102234.25;10456863;27;97099;-82
2023/12/17 09:13:45;;;;;;;9.00;4.23;;;7.20;99.90;;;5.35;88.02;102230.16;10456047;27;96531;-82
2023/12/17 09:18:49;;;;;;;8.60;3.43;;;7.20;99.90;;;5.29;88.94;102227.84;10464188;27;96629;-82
2023/12/17 09:23:53;;;;;;;7.57;3.57;;;7.10;99.90;;;5.24;89.92;102219.34;10450406;27;97782;-82
2023/12/17 09:28:57;;;;;;;8.37;3.43;;;7.10;99.90;;;5.18;90.45;102233.72;10486238;27;96503;-82
2023/12/17 09:34:00;;;;;;;9.60;3.60;;;7.00;99.90;;;5.09;91.83;102227.13;10482430;27;96581;-82
2023/12/17 09:39:04;;;;;;;12.43;4.90;;;7.00;99.90;;;5.08;92.48;102214.91;10468916;27;96712;-82
2023/12/17 09:44:08;;;;;;;8.97;4.83;;;6.90;99.90;;;5.07;93.27;102226.38;10475748;27;96427;-81
2023/12/17 09:49:11;;;;;;;7.23;4.00;;;6.90;99.90;;;5.01;93.83;102212.69;10502219;27;96514;-82
2023/12/17 09:54:15;;;;;;;7.77;4.10;;;6.90;99.90;;;4.92;95.41;102203.50;10476372;27;96639;-82
2023/12/17 09:59:18;;;;;;;6.23;3.80;;;6.80;99.90;;;4.92;95.97;102208.78;10478435;27;97721;-82
2023/12/17 10:04:24;;;;;;;8.03;4.30;;;6.80;99.90;;;4.93;96.74;102191.19;10460469;27;96548;-82
2023/12/17 10:09:31;;;;;;;7.60;4.23;;;6.80;99.90;;;4.98;97.13;102212.88;10462898;27;96654;-81
2023/12/17 10:14:35;;;;;;;6.60;4.17;;;6.80;99.90;;;4.98;95.47;102203.19;10456561;27;96579;-82
2023/12/17 10:19:39;;;;;;;6.83;3.70;;;6.90;99.90;;;4.95;96.06;102182.25;10472751;27;96592;-83
2023/12/17 10:24:42;;;;;;;8.20;4.30;;;6.90;99.90;;;4.97;98.11;102195.34;10446623;27;96634;-82
2023/12/17 10:29:52;;;;;;;9.23;5.27;;;6.90;99.90;;;5.02;96.44;102186.25;10482192;27;96542;-82
2023/12/17 10:34:56;;;;;;;9.03;4.77;;;6.90;99.90;;;5.06;96.94;102195.69;10447390;27;96599;-83
2023/12/17 10:40:01;;;;;;;9.33;4.47;;;7.00;99.90;;;5.17;94.48;102192.47;10456819;27;96723;-82
2023/12/17 10:45:07;;;;;;;9.10;5.00;;;7.00;99.90;;;5.29;94.11;102185.69;10455398;27;98194;-83
2023/12/17 10:50:11;;;;;;;9.50;4.50;;;7.20;99.90;;;5.52;93.83;102177.34;10488051;27;96653;-82
2023/12/17 10:55:16;;;;;;;8.27;4.60;;;7.40;99.90;;;5.70;91.12;102171.91;10441403;27;96558;-82
2023/12/17 11:00:24;;;;;;;7.13;3.90;;;7.60;99.90;;;5.83;89.64;102159.75;10437469;27;96464;-83
2023/12/17 11:05:29;;;;;;;6.37;3.93;;;7.70;99.90;;;5.85;88.67;102163.97;10512877;27;97446;-82
2023/12/17 11:10:38;;;;;;;7.70;4.53;;;7.70;99.90;;;5.88;88.47;102152.41;10482385;27;96580;-82
2023/12/17 11:15:41;;;;;;;6.70;3.60;;;7.70;99.90;;;5.84;86.88;102141.16;10475793;27;96702;-83
2023/12/17 11:20:48;;;;;;;15.27;7.23;;;7.70;99.90;;;5.88;87.76;102142.69;10456258;27;96771;-81
2023/12/17 11:25:54;;;;;;;8.67;3.60;;;7.70;99.90;;;5.91;86.62;102136.41;10479550;27;96769;-82
2023/12/17 11:30:59;;;;;;;6.23;3.80;;;7.70;99.90;;;5.96;86.68;102147.56;10499090;27;96510;-82
2023/12/17 11:36:04;;;;;;;6.57;3.30;;;7.80;99.90;;;6.08;85.84;102152.09;10496533;27;96507;-82
2023/12/17 11:41:07;;;;;;;6.37;3.60;;;7.90;99.90;;;6.09;85.51;102140.59;10465591;27;96587;-82
2023/12/17 11:46:11;;;;;;;6.30;3.30;;;7.90;99.90;;;6.10;84.92;102138.81;10466433;27;96570;-82
2023/12/17 11:51:25;;;;;;;3.63;2.40;;;8.00;99.90;;;6.11;83.32;102116.75;10424366;27;96909;-83
2023/12/17 11:56:30;;;;;;;4.43;2.47;;;8.00;99.90;;;6.14;83.08;102109.50;10414162;27;98158;-82
2023/12/17 12:01:34;;;;;;;6.53;2.73;;;8.00;99.90;;;6.22;80.49;102110.81;10429972;27;98192;-83
2023/12/17 12:06:39;;;;;;;4.63;2.67;;;8.10;99.90;;;6.30;80.48;102108.59;10453283;27;96459;-82
2023/12/17 12:11:42;;;;;;;6.03;2.43;;;8.10;99.90;;;6.33;78.76;102116.31;10461900;27;96587;-82
2023/12/17 12:16:46;;;;;;;14.60;4.83;;;8.10;99.90;;;6.32;78.28;102114.63;10473520;27;96444;-84
2023/12/17 12:21:50;;;;;;;41.93;14.40;;;8.20;99.90;;;6.36;77.48;102110.84;10460545;27;96564;-83
2023/12/17 12:26:54;;;;;;;5.20;2.70;;;8.20;99.90;;;6.39;75.25;102129.97;10465365;27;96531;-82
2023/12/17 12:31:59;;;;;;;4.77;2.43;;;8.20;99.90;;;6.46;76.84;102134.88;10431176;27;96795;-82
2023/12/17 12:37:03;;;;;;;5.20;2.93;;;8.30;99.90;;;6.42;76.31;102136.88;10467290;27;96652;-82
2023/12/17 12:42:06;;;;;;;4.13;2.20;;;8.30;99.90;;;6.42;75.95;102140.38;10459339;27;96563;-82
2023/12/17 12:47:10;;;;;;;4.40;2.50;;;8.30;99.90;;;6.39;75.25;102137.91;10448602;27;96501;-82
2023/12/17 12:52:13;;;;;;;5.23;2.83;;;8.30;99.90;;;6.41;76.38;102138.66;10437358;27;96629;-82
2023/12/17 12:57:17;;;;;;;7.03;3.57;;;8.30;99.90;;;6.43;75.42;102125.38;10471694;27;96469;-82
2023/12/17 13:02:21;;;;;;;6.50;3.63;;;8.30;99.90;;;6.42;76.55;102124.53;10466108;27;96526;-82
2023/12/17 13:07:24;;;;;;;20.77;9.00;;;8.30;99.90;;;6.49;78.67;102122.34;10509107;27;96536;-82
2023/12/17 13:12:28;;;;;;;5.47;2.83;;;8.40;99.90;;;6.57;76.61;102113.94;10493258;27;98047;-81
2023/12/17 13:17:31;;;;;;;13.27;5.97;;;8.40;99.90;;;6.61;76.56;102116.31;10483780;27;96711;-82
2023/12/17 13:22:36;;;;;;;7.57;4.10;;;8.50;99.90;;;6.65;75.62;102114.31;10476531;27;96539;-83
2023/12/17 13:27:40;;;;;;;9.80;4.13;;;8.60;99.90;;;6.68;77.60;102117.63;10417602;28;96688;-82
2023/12/17 13:32:44;;;;;;;5.37;3.03;;;8.60;99.90;;;6.66;77.78;102116.88;10476797;27;96977;-82
2023/12/17 13:37:48;;;;;;;6.77;3.33;;;8.60;99.90;;;6.65;76.31;102111.66;10488834;27;96488;-82
2023/12/17 13:42:52;;;;;;;8.33;3.30;;;8.50;99.90;;;6.67;77.12;102105.34;10452370;27;96545;-82
2023/12/17 13:47:55;;;;;;;9.07;3.20;;;8.50;99.90;;;6.64;77.12;102107.34;10482336;27;96506;-82
2023/12/17 13:53:00;;;;;;;5.43;2.97;;;8.50;99.90;;;6.57;76.66;102106.88;10445003;27;96656;-82
2023/12/17 13:58:05;;;;;;;7.80;2.93;;;8.50;99.90;;;6.52;78.14;102110.75;10477052;27;96626;-82
2023/12/17 14:03:08;;;;;;;6.70;3.03;;;8.40;99.90;;;6.39;78.22;102097.44;10473835;27;97976;-82
2023/12/17 14:08:12;;;;;;;8.47;3.73;;;8.40;99.90;;;6.37;77.81;102107.25;10459999;27;96666;-82
2023/12/17 14:13:18;;;;;;;21.67;8.97;;;8.30;99.90;;;6.17;79.49;102085.53;10459377;27;96543;-82
2023/12/17 14:18:22;;;;;;;15.47;6.40;;;8.20;99.90;;;6.19;80.40;102092.53;10433118;27;96949;-81
2023/12/17 14:23:26;;;;;;;10.70;4.57;;;8.10;99.90;;;6.08;80.70;102094.03;10451399;27;97705;-82
2023/12/17 14:28:29;;;;;;;25.83;12.37;;;8.00;99.90;;;5.95;82.25;102082.53;10419460;28;96531;-81
2023/12/17 14:33:33;;;;;;;27.70;11.00;;;7.90;99.90;;;5.86;83.02;102085.66;10404935;27;96556;-81
2023/12/17 14:38:37;;;;;;;15.53;6.63;;;7.80;99.90;;;5.74;82.81;102095.16;10462939;27;96529;-81
2023/12/17 14:43:41;;;;;;;14.30;5.93;;;7.70;99.90;;;5.58;84.15;102087.31;10469424;27;96563;-81
2023/12/17 14:48:44;;;;;;;17.80;6.93;;;7.60;99.90;;;5.48;85.26;102093.19;10449936;27;96606;-81
2023/12/17 14:53:48;;;;;;;20.20;8.30;;;7.40;99.90;;;5.38;85.33;102098.16;10426237;27;96549;-81
2023/12/17 14:59:02;;;;;;;13.83;5.10;;;7.30;99.90;;;5.32;86.32;102109.88;10482593;27;96643;-81
2023/12/17 15:04:06;;;;;;;6.83;3.50;;;7.20;99.90;;;5.25;85.89;102094.50;10438631;27;98092;-82
2023/12/17 15:09:11;;;;;;;7.87;4.03;;;7.20;99.90;;;5.18;87.35;102090.53;10468938;27;96581;-81
2023/12/17 15:14:15;;;;;;;12.70;4.03;;;7.10;99.90;;;5.10;89.43;102099.72;10442080;27;96528;-82
2023/12/17 15:19:18;;;;;;;11.80;5.37;;;7.00;99.90;;;4.95;91.29;102087.41;10457184;27;96491;-81
2023/12/17 15:24:22;;;;;;;12.30;5.00;;;6.90;99.90;;;4.82;93.63;102079.31;10458971;27;96916;-81
2023/12/17 15:29:26;;;;;;;15.50;5.83;;;6.80;99.90;;;4.75;94.85;102090.28;10458171;27;96538;-82
2023/12/17 15:34:30;;;;;;;21.27;8.30;;;6.70;99.90;;;4.60;95.13;102070.91;10475328;27;96492;-82
2023/12/17 15:39:34;;;;;;;13.97;5.00;;;6.60;99.90;;;4.52;94.26;102081.84;10461073;27;97807;-81
2023/12/17 15:44:41;;;;;;;9.27;4.10;;;6.50;99.90;;;4.53;95.70;102080.91;10473169;27;96500;-81
2023/12/17 15:49:45;;;;;;;9.63;4.53;;;6.50;99.90;;;4.46;95.22;102084.81;10468125;27;96603;-82
2023/12/17 15:54:48;;;;;;;8.67;3.87;;;6.40;99.90;;;4.52;95.94;102088.91;10455513;27;97808;-81
2023/12/17 15:59:54;;;;;;;9.67;3.17;;;6.50;99.90;;;4.46;94.08;102063.75;10466525;27;96394;-81
2023/12/17 16:04:58;;;;;;;6.50;2.87;;;6.50;99.90;;;4.56;92.80;102066.75;10465512;27;96496;-82
2023/12/17 16:10:01;;;;;;;7.70;2.70;;;6.50;99.90;;;4.62;90.73;102069.06;10459347;27;96453;-81
2023/12/17 16:15:05;;;;;;;7.70;3.80;;;6.50;99.90;;;4.68;90.21;102075.75;10465770;27;96516;-82
2023/12/17 16:20:10;;;;;;;11.37;5.27;;;6.60;99.90;;;4.66;89.70;102075.84;10446935;27;96542;-81
2023/12/17 16:25:13;;;;;;;5.30;2.93;;;6.60;99.90;;;4.64;89.95;102082.13;10447818;27;96454;-81
2023/12/17 16:30:21;;;;;;;6.53;2.90;;;6.50;99.90;;;4.60;91.21;102094.59;10463259;27;96475;-82
2023/12/17 16:35:25;;;;;;;7.73;3.17;;;6.50;99.90;;;4.50;93.26;102089.00;10464346;27;96667;-81
2023/12/17 16:40:30;;;;;;;7.07;2.93;;;6.50;99.90;;;4.39;93.56;102086.09;10463645;27;98374;-82
2023/12/17 16:45:33;;;;;;;5.03;2.50;;;6.40;99.90;;;4.37;93.31;102069.50;10463218;27;96421;-82
2023/12/17 16:50:37;;;;;;;6.30;2.60;;;6.30;99.90;;;4.36;91.55;102072.22;10465215;27;96716;-82
2023/12/17 16:55:41;;;;;;;7.43;3.50;;;6.30;99.90;;;4.32;92.20;102081.22;10435747;27;96634;-82
2023/12/17 17:00:45;;;;;;;9.07;3.50;;;6.30;99.90;;;4.33;91.38;102089.03;10419807;28;96521;-82
2023/12/17 17:05:49;;;;;;;4.77;2.67;;;6.30;99.90;;;4.28;91.00;102078.75;10467815;27;97368;-82
2023/12/17 17:10:53;;;;;;;6.23;2.97;;;6.30;99.90;;;4.26;92.65;102088.53;10462580;27;96593;-82
2023/12/17 17:16:01;;;;;;;9.43;3.10;;;6.20;99.90;;;4.20;92.32;102075.69;10464244;27;96414;-82
2023/12/17 17:21:05;;;;;;;7.57;3.40;;;6.20;99.90;;;4.13;92.53;102065.53;10448161;27;96551;-82
2023/12/17 17:26:09;;;;;;;5.33;2.43;;;6.10;99.90;;;4.02;93.51;102056.47;10436293;27;96625;-82
2023/12/17 17:31:12;;;;;;;6.07;2.70;;;6.10;99.90;;;3.97;93.52;102052.38;10421673;27;96479;-82
2023/12/17 17:36:16;;;;;;;5.87;2.70;;;6.00;99.90;;;3.92;95.32;102060.50;10419598;28;96515;-82
2023/12/17 17:41:20;;;;;;;8.83;3.90;;;5.90;99.90;;;3.75;96.40;102056.09;10459253;27;96505;-82
2023/12/17 17:46:23;;;;;;;9.13;4.23;;;5.90;99.90;;;3.67;97.63;102081.09;10445555;27;96491;-82
2023/12/17 17:51:27;;;;;;;14.30;4.73;;;5.80;99.90;;;3.46;98.06;102080.38;10449540;27;96586;-82
2023/12/17 17:56:31;;;;;;;20.57;8.20;;;5.60;99.90;;;3.22;100.00;102072.75;10461716;27;98005;-82
2023/12/17 18:01:35;;;;;;;23.83;11.27;;;5.40;99.90;;;2.99;100.00;102085.31;10461216;27;96750;-82
2023/12/17 18:06:38;;;;;;;30.30;12.43;;;5.10;99.90;;;2.77;100.00;102091.59;10461244;27;96509;-82
2023/12/17 18:11:42;;;;;;;30.17;14.17;;;4.90;99.90;;;2.51;100.00;102084.88;10484464;27;98119;-82
2023/12/17 18:16:47;;;;;;;28.57;14.17;;;4.70;99.90;;;2.36;100.00;102112.69;10503401;27;96549;-82
2023/12/17 18:21:50;;;;;;;31.17;14.47;;;4.50;99.90;;;2.22;100.00;102108.94;10472468;27;96511;-82
2023/12/17 18:27:00;;;;;;;47.57;18.43;;;4.30;99.90;;;2.04;100.00;102090.50;10482153;27;98013;-82
2023/12/17 18:32:04;;;;;;;55.10;21.97;;;4.20;99.90;;;1.90;100.00;102077.13;10455861;27;96737;-84
2023/12/17 18:37:11;;;;;;;34.60;15.73;;;4.00;99.90;;;1.76;100.00;102072.47;10445858;27;96856;-80
2023/12/17 18:42:14;;;;;;;31.93;14.73;;;3.90;99.90;;;1.67;100.00;102070.25;10484830;27;96662;-82
2023/12/17 18:47:18;;;;;;;31.80;14.70;;;3.80;99.90;;;1.54;100.00;102064.66;10486345;27;96435;-81
2023/12/17 18:52:22;;;;;;;31.93;12.73;;;3.70;99.90;;;1.44;100.00;102063.38;10465862;27;98225;-81
2023/12/17 18:57:27;;;;;;;26.53;12.70;;;3.50;99.90;;;1.32;100.00;102056.88;10459973;27;96564;-81
2023/12/17 19:02:30;;;;;;;23.37;11.17;;;3.40;99.90;;;1.21;100.00;102059.06;10458336;27;96516;-83
2023/12/17 19:07:34;;;;;;;27.47;12.50;;;3.30;99.90;;;1.11;100.00;102062.97;10464908;27;97051;-82
2023/12/17 19:12:37;;;;;;;29.77;11.27;;;3.20;99.90;;;1.03;100.00;102049.34;10484966;27;96728;-81
2023/12/17 19:17:41;;;;;;;29.53;12.93;;;3.20;99.90;;;0.96;100.00;102046.13;10484946;27;96427;-81
2023/12/17 19:22:45;;;;;;;34.47;15.10;;;3.10;99.90;;;0.90;100.00;102041.13;10443247;27;96675;-83
2023/12/17 19:27:51;;;;;;;29.27;14.40;;;3.00;99.90;;;0.90;100.00;102045.47;10405537;27;96695;-81
2023/12/17 19:32:55;;;;;;;34.40;15.53;;;3.10;99.90;;;0.91;100.00;102027.13;10442682;27;96495;-83
2023/12/17 19:38:02;;;;;;;32.70;13.23;;;3.00;99.90;;;1.05;100.00;102043.13;10460085;27;96478;-83
2023/12/17 19:43:05;;;;;;;24.57;11.67;;;3.10;99.90;;;1.14;100.00;102041.91;10458782;27;96497;-83
2023/12/17 19:48:09;;;;;;;26.63;11.43;;;3.10;99.90;;;1.12;100.00;102054.19;10459114;27;97030;-83
2023/12/17 19:53:14;;;;;;;25.60;11.93;;;3.20;99.90;;;1.11;100.00;102047.25;10436243;27;96620;-83
2023/12/17 19:58:19;;;;;;;30.07;14.67;;;3.20;99.90;;;1.10;100.00;102047.31;10439905;27;96616;-83
2023/12/17 20:03:23;;;;;;;30.73;13.10;;;3.20;99.90;;;1.05;100.00;102050.97;10442715;27;96364;-83
2023/12/17 20:08:30;;;;;;;35.70;14.40;;;3.10;99.90;;;0.86;100.00;102031.69;10471057;27;96532;-83
2023/12/17 20:13:37;;;;;;;29.67;13.47;;;3.10;99.90;;;0.82;100.00;102035.31;10447390;27;97323;-83
2023/12/17 20:18:41;;;;;;;29.70;14.27;;;3.00;99.90;;;0.83;100.00;102039.63;10464934;27;96608;-83
2023/12/17 20:23:47;;;;;;;29.90;14.50;;;3.00;99.90;;;0.83;100.00;102049.25;10464531;27;96749;-82
2023/12/17 20:28:50;;;;;;;27.47;12.90;;;2.90;99.90;;;0.80;100.00;102034.53;10472707;27;96815;-83
2023/12/17 20:33:56;;;;;;;29.87;14.40;;;2.90;99.90;;;0.72;100.00;102034.84;10475048;27;96540;-83
2023/12/17 20:39:00;;;;;;;35.97;15.63;;;2.80;99.90;;;0.66;100.00;102036.81;10489818;27;96911;-83
2023/12/17 20:44:04;;;;;;;31.07;14.20;;;2.80;99.90;;;0.59;100.00;102030.97;10461313;27;96696;-82
2023/12/17 20:49:07;;;;;;;33.60;16.30;;;2.70;99.90;;;0.50;100.00;102013.03;10465227;27;96556;-83
2023/12/17 20:54:11;;;;;;;34.57;16.43;;;2.60;99.90;;;0.43;100.00;102008.97;10476313;27;96665;-82
2023/12/17 20:59:15;;;;;;;32.63;14.37;;;2.60;99.90;;;0.34;100.00;102006.69;10495578;27;96653;-82